Time;durP1;ratioP1;P1;durP2;ratioP2;P2;SDS_P1;SDS_P2;PMS_P1;PMS_P2;Temp;Humidity;BMP_temperature;BMP_pressure;BME280_temperature;BME280_humidity;BME280_pressure;Samples;Min_cycle;Max_cycle;Signal;HPM_P1;HPM_P2
2021/06/20 00:00:32;;;;;;;1.98;1.80;;;20.40;91.50;;;;;;4351358;32;20058;-69
2021/06/20 00:02:58;;;;;;;3.30;2.10;;;20.40;91.60;;;;;;4338585;32;20108;-69
2021/06/20 00:05:49;;;;;;;4.45;2.37;;;20.50;91.70;;;;;;4348304;32;20142;-68
2021/06/20 00:08:15;;;;;;;3.22;2.30;;;20.50;92.00;;;;;;4349556;32;20070;-69
2021/06/20 00:10:41;;;;;;;2.50;2.10;;;20.60;92.00;;;;;;4323992;32;20155;-69
2021/06/20 00:13:08;;;;;;;3.80;2.28;;;20.50;93.10;;;;;;4335936;32;20097;-69
2021/06/20 00:15:35;;;;;;;2.90;2.30;;;20.50;93.20;;;;;;4324225;32;20071;-69
2021/06/20 00:18:01;;;;;;;3.12;2.25;;;20.40;93.70;;;;;;4323952;32;20508;-71
2021/06/20 00:20:30;;;;;;;3.08;2.12;;;20.50;93.50;;;;;;4336545;32;20530;-70
2021/06/20 00:22:58;;;;;;;4.62;2.67;;;20.50;93.70;;;;;;4324126;32;20127;-69
2021/06/20 00:25:25;;;;;;;3.28;2.40;;;20.40;93.80;;;;;;4324099;32;20074;-69
2021/06/20 00:27:52;;;;;;;2.80;2.12;;;20.40;94.00;;;;;;4348114;32;20077;-70
2021/06/20 00:30:20;;;;;;;6.10;2.58;;;20.50;93.90;;;;;;4323924;32;20070;-69
2021/06/20 00:32:47;;;;;;;2.75;2.22;;;20.40;95.10;;;;;;4335954;32;20118;-69
2021/06/20 00:35:14;;;;;;;2.67;2.10;;;20.40;95.60;;;;;;4340290;32;20071;-69
2021/06/20 00:37:40;;;;;;;6.03;2.45;;;20.50;94.80;;;;;;4348341;32;20211;-69
2021/06/20 00:40:07;;;;;;;4.22;2.60;;;20.50;94.40;;;;;;4338057;32;20142;-68
2021/06/20 00:42:34;;;;;;;3.55;2.50;;;20.50;94.40;;;;;;4350598;32;20185;-69
2021/06/20 00:45:00;;;;;;;2.83;2.40;;;20.50;94.10;;;;;;4338324;32;20062;-69
2021/06/20 00:47:26;;;;;;;2.72;2.42;;;20.50;94.40;;;;;;4326018;32;20079;-69
2021/06/20 00:49:52;;;;;;;2.62;2.40;;;20.50;94.60;;;;;;4338134;32;20077;-68
2021/06/20 00:52:19;;;;;;;3.25;2.60;;;20.50;94.60;;;;;;4350465;32;20085;-69
2021/06/20 00:54:48;;;;;;;3.80;2.50;;;20.50;94.90;;;;;;4350907;32;20115;-69
2021/06/20 00:57:19;;;;;;;3.08;2.37;;;20.50;95.20;;;;;;4338287;32;20492;-69
2021/06/20 00:59:46;;;;;;;4.35;2.30;;;20.40;96.50;;;;;;4337796;32;20545;-70
2021/06/20 01:02:12;;;;;;;4.62;2.85;;;20.50;95.70;;;;;;4351025;32;20078;-69
2021/06/20 01:04:44;;;;;;;5.07;2.50;;;20.40;96.70;;;;;;4349935;32;20515;-69
2021/06/20 01:07:14;;;;;;;5.72;3.10;;;20.40;97.10;;;;;;4338254;32;20089;-70
2021/06/20 01:09:40;;;;;;;4.35;2.75;;;20.40;98.40;;;;;;4338800;32;20066;-71
2021/06/20 01:12:07;;;;;;;4.35;2.50;;;20.50;97.30;;;;;;4362849;32;20512;-71
2021/06/20 01:14:34;;;;;;;3.72;2.60;;;20.50;97.00;;;;;;4362960;32;20081;-71
2021/06/20 01:17:00;;;;;;;3.70;2.50;;;20.50;96.60;;;;;;4338488;32;20163;-69
2021/06/20 01:19:27;;;;;;;5.35;2.78;;;20.50;96.70;;;;;;4338343;32;20066;-69
2021/06/20 01:21:53;;;;;;;8.23;3.10;;;20.50;96.50;;;;;;4350125;32;20511;-70
2021/06/20 01:24:19;;;;;;;3.05;2.42;;;20.50;97.30;;;;;;4350342;32;20500;-68
2021/06/20 01:26:46;;;;;;;6.25;2.90;;;20.50;97.20;;;;;;4325734;32;20146;-69
2021/06/20 01:29:15;;;;;;;5.20;2.40;;;20.60;96.50;;;;;;4337532;32;20179;-69
2021/06/20 01:31:48;;;;;;;4.68;2.45;;;20.60;96.50;;;;;;4362592;32;20072;-70
2021/06/20 01:34:16;;;;;;;6.32;2.70;;;20.60;96.80;;;;;;4351740;32;20441;-70
2021/06/20 01:36:43;;;;;;;4.47;2.62;;;20.60;97.00;;;;;;4338007;32;20077;-70
2021/06/20 01:39:11;;;;;;;5.43;2.40;;;20.60;97.50;;;;;;4349884;32;20497;-69
2021/06/20 01:41:38;;;;;;;4.20;2.28;;;20.70;97.00;;;;;;4350212;32;20107;-68
2021/06/20 01:44:04;;;;;;;5.53;2.50;;;20.70;97.30;;;;;;4337428;32;20496;-70
2021/06/20 01:46:31;;;;;;;3.20;2.50;;;20.70;97.10;;;;;;4325438;32;20163;-70
2021/06/20 01:48:57;;;;;;;2.45;2.10;;;20.80;97.20;;;;;;4362226;32;20078;-69
2021/06/20 01:51:23;;;;;;;3.53;2.60;;;20.80;97.10;;;;;;4376095;32;20457;-69
2021/06/20 01:53:49;;;;;;;6.85;2.67;;;20.80;97.20;;;;;;4349833;32;20165;-70
2021/06/20 01:56:15;;;;;;;3.87;2.70;;;20.80;97.00;;;;;;4365493;32;20081;-70
2021/06/20 01:58:41;;;;;;;4.62;2.70;;;20.80;96.50;;;;;;4364925;32;20058;-70
2021/06/20 02:01:08;;;;;;;6.25;2.78;;;20.80;97.00;;;;;;4340607;32;20497;-70
2021/06/20 02:03:34;;;;;;;8.80;2.78;;;20.90;97.40;;;;;;4352881;32;20089;-70
2021/06/20 02:06:00;;;;;;;5.55;2.42;;;20.90;97.30;;;;;;4337955;32;20505;-70
2021/06/20 02:08:27;;;;;;;6.00;3.05;;;20.90;96.40;;;;;;4349714;32;20082;-69
2021/06/20 02:10:55;;;;;;;8.50;3.22;;;20.90;97.40;;;;;;4337422;32;20073;-69
2021/06/20 02:13:24;;;;;;;7.20;2.97;;;21.00;96.60;;;;;;4337972;32;20093;-69
2021/06/20 02:15:51;;;;;;;7.20;2.80;;;21.00;97.50;;;;;;4337896;32;20070;-68
2021/06/20 02:18:17;;;;;;;4.12;2.42;;;21.00;96.00;;;;;;4325568;32;20070;-69
2021/06/20 02:20:44;;;;;;;4.25;2.30;;;21.00;95.50;;;;;;4325802;32;20093;-70
2021/06/20 02:23:10;;;;;;;6.93;2.67;;;21.10;95.40;;;;;;4325594;32;20082;-70
2021/06/20 02:25:37;;;;;;;6.57;2.95;;;21.10;95.10;;;;;;4350119;32;20254;-70
2021/06/20 02:28:03;;;;;;;3.70;2.62;;;21.20;95.60;;;;;;4326056;32;20082;-69
2021/06/20 02:30:30;;;;;;;5.93;2.90;;;21.20;96.60;;;;;;4325652;32;20074;-69
2021/06/20 02:32:56;;;;;;;5.57;3.33;;;21.30;96.40;;;;;;4349503;32;20079;-70
2021/06/20 02:35:23;;;;;;;5.72;3.03;;;21.20;95.60;;;;;;4357206;32;20074;-70
2021/06/20 02:37:49;;;;;;;5.65;2.90;;;21.20;96.10;;;;;;4338689;32;20098;-69
2021/06/20 02:40:16;;;;;;;3.83;2.60;;;21.20;96.20;;;;;;4325690;32;20074;-69
2021/06/20 02:42:44;;;;;;;5.00;2.90;;;21.20;95.10;;;;;;4325514;32;20078;-69
2021/06/20 02:45:13;;;;;;;6.30;2.80;;;21.30;95.80;;;;;;4337591;32;20088;-69
2021/06/20 02:47:39;;;;;;;3.75;2.40;;;21.30;96.10;;;;;;4325308;32;20145;-70
2021/06/20 02:50:06;;;;;;;3.55;2.65;;;21.40;96.40;;;;;;4337137;32;20077;-71
2021/06/20 02:52:33;;;;;;;3.08;2.58;;;21.30;96.10;;;;;;4337234;32;20089;-70
2021/06/20 02:55:00;;;;;;;3.87;2.62;;;21.40;94.40;;;;;;4337091;32;20063;-70
2021/06/20 02:57:29;;;;;;;3.08;2.65;;;21.40;95.30;;;;;;4349497;32;20096;-69
2021/06/20 02:59:57;;;;;;;7.90;2.90;;;21.50;95.00;;;;;;4325006;32;20077;-70
2021/06/20 03:02:23;;;;;;;4.95;2.70;;;21.50;95.40;;;;;;4325244;32;20075;-69
2021/06/20 03:04:53;;;;;;;3.75;2.83;;;21.60;95.30;;;;;;4352721;32;20071;-69
2021/06/20 03:07:19;;;;;;;4.05;2.80;;;21.60;95.00;;;;;;4339322;32;20224;-70
2021/06/20 03:09:45;;;;;;;5.22;2.70;;;21.50;95.90;;;;;;4351688;32;20183;-70
2021/06/20 03:12:13;;;;;;;6.05;2.62;;;21.60;94.90;;;;;;4339821;32;20067;-70
2021/06/20 03:14:40;;;;;;;5.62;3.20;;;21.70;95.30;;;;;;4339526;32;20153;-70
2021/06/20 03:17:06;;;;;;;4.12;2.90;;;21.80;95.50;;;;;;4327349;32;20073;-71
2021/06/20 03:19:36;;;;;;;7.22;3.30;;;21.90;93.30;;;;;;4364311;32;20074;-69
2021/06/20 03:22:03;;;;;;;5.55;2.90;;;22.00;94.00;;;;;;4364226;32;20162;-69
2021/06/20 03:24:31;;;;;;;4.30;2.90;;;22.00;95.00;;;;;;4377889;32;20074;-69
2021/06/20 03:26:58;;;;;;;4.22;2.97;;;22.10;94.10;;;;;;4351663;32;20163;-69
2021/06/20 03:29:24;;;;;;;4.22;3.33;;;22.20;92.40;;;;;;4339158;32;20073;-70
2021/06/20 03:31:51;;;;;;;4.80;3.25;;;22.30;92.00;;;;;;4351035;32;20090;-69
2021/06/20 03:34:17;;;;;;;4.95;2.75;;;22.40;92.60;;;;;;4351508;32;20167;-69
2021/06/20 03:36:44;;;;;;;9.68;3.92;;;22.50;91.90;;;;;;4327274;32;20085;-70
2021/06/20 03:39:10;;;;;;;4.12;3.50;;;22.50;90.50;;;;;;4339012;32;20113;-69
2021/06/20 03:41:38;;;;;;;3.83;3.17;;;22.50;90.00;;;;;;4351315;32;20157;-70
2021/06/20 03:44:06;;;;;;;4.47;3.55;;;22.60;90.10;;;;;;4339357;32;20526;-70
2021/06/20 03:46:36;;;;;;;4.37;3.40;;;22.70;85.40;;;;;;4363291;32;20066;-69
2021/06/20 03:49:03;;;;;;;6.72;3.58;;;22.70;86.80;;;;;;4363298;32;20430;-69
2021/06/20 03:51:30;;;;;;;5.18;3.47;;;22.80;87.00;;;;;;4350929;32;20077;-69
2021/06/20 03:53:56;;;;;;;7.03;4.00;;;22.90;85.20;;;;;;4350827;32;20464;-70
2021/06/20 03:56:22;;;;;;;6.50;3.67;;;22.90;84.70;;;;;;4350859;32;20203;-70
2021/06/20 03:58:49;;;;;;;5.03;3.80;;;23.00;85.10;;;;;;4350812;32;20086;-70
2021/06/20 04:01:15;;;;;;;5.32;3.40;;;23.10;82.10;;;;;;4351320;32;20507;-70
2021/06/20 04:03:41;;;;;;;6.75;3.67;;;23.10;83.00;;;;;;4351011;32;20082;-70
2021/06/20 04:06:07;;;;;;;7.25;3.70;;;23.10;83.90;;;;;;4363614;32;20512;-69
2021/06/20 04:08:34;;;;;;;6.50;3.67;;;23.20;83.60;;;;;;4362840;32;20134;-69
2021/06/20 04:11:00;;;;;;;5.57;3.72;;;23.20;82.30;;;;;;4363365;32;20445;-69
2021/06/20 04:13:26;;;;;;;6.90;3.67;;;23.30;82.30;;;;;;4339752;32;20070;-70
2021/06/20 04:15:52;;;;;;;5.53;3.95;;;23.30;81.30;;;;;;4380499;32;20105;-70
2021/06/20 04:18:18;;;;;;;6.45;3.95;;;23.30;80.50;;;;;;4352486;32;20097;-70
2021/06/20 04:20:44;;;;;;;8.50;3.78;;;23.30;81.10;;;;;;4339861;32;20073;-70
2021/06/20 04:23:11;;;;;;;6.43;4.20;;;23.40;81.00;;;;;;4340160;32;20069;-68
2021/06/20 04:25:37;;;;;;;5.25;3.50;;;23.50;80.40;;;;;;4342719;32;20088;-69
2021/06/20 04:28:04;;;;;;;3.75;3.00;;;23.80;80.10;;;;;;4377765;32;20504;-70
2021/06/20 04:30:30;;;;;;;5.10;3.70;;;25.10;70.80;;;;;;4364361;32;20093;-70
2021/06/20 04:32:56;;;;;;;5.62;4.00;;;27.70;52.80;;;;;;4350660;32;20067;-70
2021/06/20 04:35:23;;;;;;;5.60;3.87;;;28.50;47.80;;;;;;4350811;32;20077;-69
2021/06/20 04:37:50;;;;;;;6.87;3.70;;;27.80;50.20;;;;;;4363011;32;20055;-69
2021/06/20 04:40:19;;;;;;;5.15;4.22;;;28.10;49.40;;;;;;4337904;32;20464;-70
2021/06/20 04:42:54;;;;;;;6.30;4.18;;;28.60;46.90;;;;;;4350854;32;20062;-70
2021/06/20 04:45:20;;;;;;;5.70;3.90;;;28.60;46.20;;;;;;4339778;32;20154;-69
2021/06/20 04:47:46;;;;;;;9.40;4.68;;;28.50;47.70;;;;;;4350177;32;20457;-70
2021/06/20 04:50:13;;;;;;;7.35;4.28;;;28.40;47.20;;;;;;4338274;32;20113;-70
2021/06/20 04:52:41;;;;;;;5.53;4.10;;;27.80;49.60;;;;;;4338385;32;20070;-69
2021/06/20 04:55:10;;;;;;;7.75;4.15;;;28.10;48.90;;;;;;4350195;32;20065;-71
2021/06/20 04:57:36;;;;;;;11.88;4.30;;;28.60;46.40;;;;;;4338402;32;20186;-70
2021/06/20 05:00:03;;;;;;;7.35;4.22;;;28.60;47.30;;;;;;4337901;32;20168;-69
2021/06/20 05:02:29;;;;;;;5.78;4.07;;;28.60;47.90;;;;;;4350483;32;20078;-69
2021/06/20 05:04:56;;;;;;;7.15;4.47;;;28.50;47.60;;;;;;4362536;32;20097;-70
2021/06/20 05:07:22;;;;;;;5.82;4.47;;;29.00;45.80;;;;;;4320294;33;20161;-70
2021/06/20 05:09:48;;;;;;;5.62;4.12;;;29.90;44.40;;;;;;4357254;32;20071;-71
2021/06/20 05:12:15;;;;;;;6.85;4.40;;;29.30;44.10;;;;;;4332402;33;20536;-70
2021/06/20 05:14:43;;;;;;;6.12;4.20;;;29.70;43.80;;;;;;4332773;33;20150;-70
2021/06/20 05:17:17;;;;;;;6.43;4.12;;;29.70;44.30;;;;;;4320687;33;20073;-69
2021/06/20 05:19:43;;;;;;;5.60;3.75;;;29.10;45.30;;;;;;4320804;33;20090;-70
2021/06/20 05:22:10;;;;;;;5.93;4.60;;;29.20;45.30;;;;;;4332944;33;20578;-70
2021/06/20 05:24:38;;;;;;;6.32;4.12;;;29.60;44.40;;;;;;4321044;33;20082;-70
2021/06/20 05:27:04;;;;;;;6.50;4.10;;;28.70;46.50;;;;;;4321248;33;20081;-70
2021/06/20 05:29:31;;;;;;;7.00;4.32;;;29.30;44.60;;;;;;4321470;33;20114;-70
2021/06/20 05:31:57;;;;;;;5.07;3.87;;;29.00;45.70;;;;;;4335858;33;20075;-70
2021/06/20 05:34:23;;;;;;;4.80;3.90;;;29.40;45.40;;;;;;4348202;33;20097;-69
2021/06/20 05:36:49;;;;;;;7.43;4.45;;;29.60;44.70;;;;;;4340831;33;20157;-69
2021/06/20 05:39:15;;;;;;;8.45;4.40;;;29.60;45.50;;;;;;4333679;33;20498;-69
2021/06/20 05:41:42;;;;;;;8.10;4.00;;;29.80;44.10;;;;;;4333465;33;20252;-69
2021/06/20 05:44:08;;;;;;;7.60;4.15;;;30.20;43.80;;;;;;4345473;33;20086;-69
2021/06/20 05:46:34;;;;;;;7.22;4.35;;;31.10;41.00;;;;;;4345316;33;20075;-69
2021/06/20 05:49:00;;;;;;;6.78;4.65;;;30.20;41.70;;;;;;4308544;33;20071;-70
2021/06/20 05:51:27;;;;;;;5.93;4.53;;;30.20;42.30;;;;;;4320693;33;20573;-69
2021/06/20 05:53:53;;;;;;;7.05;4.50;;;29.10;46.10;;;;;;4334670;33;20074;-70
2021/06/20 05:56:20;;;;;;;7.32;4.65;;;29.60;44.60;;;;;;4332416;33;20485;-70
2021/06/20 05:58:46;;;;;;;5.00;4.18;;;30.40;42.70;;;;;;4333396;33;20071;-69
2021/06/20 06:01:13;;;;;;;5.30;4.22;;;30.40;43.30;;;;;;4320887;33;20458;-70
2021/06/20 06:03:39;;;;;;;6.97;4.75;;;30.60;43.30;;;;;;4332769;33;20173;-69
2021/06/20 06:06:05;;;;;;;8.50;5.37;;;29.40;44.40;;;;;;4356403;32;20106;-70
2021/06/20 06:08:32;;;;;;;6.18;4.55;;;30.20;43.70;;;;;;4350036;32;20120;-70
2021/06/20 06:10:58;;;;;;;6.87;4.97;;;30.40;43.50;;;;;;4362593;32;20085;-70
2021/06/20 06:13:24;;;;;;;7.20;4.72;;;30.70;41.40;;;;;;4325856;32;20067;-70
2021/06/20 06:15:51;;;;;;;5.30;4.45;;;30.20;42.70;;;;;;4313692;32;20102;-72
2021/06/20 06:18:17;;;;;;;5.87;4.20;;;31.30;41.30;;;;;;4339651;32;20063;-71
2021/06/20 06:20:43;;;;;;;7.10;4.43;;;31.20;41.50;;;;;;4349718;32;20144;-69
2021/06/20 06:23:13;;;;;;;6.80;4.20;;;31.20;40.50;;;;;;4350002;32;20085;-70
2021/06/20 06:25:39;;;;;;;6.68;4.68;;;31.50;36.90;;;;;;4350427;32;20089;-68
2021/06/20 06:28:06;;;;;;;6.55;4.78;;;30.50;38.60;;;;;;4349966;32;20183;-70
2021/06/20 06:30:32;;;;;;;8.18;4.28;;;30.70;39.00;;;;;;4337808;32;20172;-69
2021/06/20 06:32:58;;;;;;;7.20;4.60;;;30.00;43.70;;;;;;4337642;32;20071;-69
2021/06/20 06:35:24;;;;;;;6.55;4.30;;;29.30;45.90;;;;;;4347255;33;20079;-70
2021/06/20 06:37:51;;;;;;;7.72;4.50;;;29.60;44.50;;;;;;4361078;32;20086;-70
2021/06/20 06:40:17;;;;;;;6.22;4.40;;;28.80;46.20;;;;;;4337058;32;20106;-69
2021/06/20 06:42:44;;;;;;;7.82;4.60;;;28.60;48.70;;;;;;4349920;32;20069;-70
2021/06/20 06:45:11;;;;;;;7.70;4.85;;;29.00;49.30;;;;;;4337726;32;20109;-68
2021/06/20 06:47:37;;;;;;;8.32;4.65;;;29.00;49.00;;;;;;4337574;32;20550;-72
2021/06/20 06:50:07;;;;;;;6.93;4.65;;;28.70;49.30;;;;;;4362041;32;20438;-70
2021/06/20 06:52:33;;;;;;;7.15;4.40;;;28.90;47.60;;;;;;4337731;32;20157;-70
2021/06/20 06:55:00;;;;;;;8.52;4.55;;;29.20;47.60;;;;;;4336861;32;20517;-70
2021/06/20 06:57:27;;;;;;;7.72;4.78;;;29.30;46.30;;;;;;4337371;32;20093;-70
2021/06/20 06:59:54;;;;;;;7.45;5.00;;;29.60;44.50;;;;;;4349931;32;20085;-70
2021/06/20 07:02:23;;;;;;;7.07;4.65;;;29.50;45.50;;;;;;4349178;32;20057;-70
2021/06/20 07:04:49;;;;;;;7.05;4.25;;;29.00;44.80;;;;;;4349243;32;20073;-70
2021/06/20 07:07:15;;;;;;;5.12;4.18;;;29.00;44.70;;;;;;4339167;32;20097;-69
2021/06/20 07:09:41;;;;;;;6.35;4.65;;;28.90;45.20;;;;;;4351636;32;20081;-68
2021/06/20 07:12:08;;;;;;;5.85;4.00;;;28.80;46.10;;;;;;4364379;32;20070;-70
2021/06/20 07:14:36;;;;;;;6.20;4.25;;;29.00;44.40;;;;;;4351604;32;20515;-70
2021/06/20 07:17:05;;;;;;;9.75;4.60;;;29.40;43.70;;;;;;4327725;32;20098;-70
2021/06/20 07:19:34;;;;;;;7.80;4.87;;;29.20;44.10;;;;;;4327443;32;20143;-70
2021/06/20 07:22:01;;;;;;;4.97;4.18;;;28.90;44.00;;;;;;4351653;32;20465;-69
2021/06/20 07:24:27;;;;;;;6.87;4.32;;;29.00;43.80;;;;;;4352146;32;20102;-70
2021/06/20 07:26:53;;;;;;;5.32;3.78;;;29.10;43.80;;;;;;4339091;32;20062;-70
2021/06/20 07:29:19;;;;;;;6.20;4.78;;;29.20;44.20;;;;;;4339236;32;20088;-70
2021/06/20 07:31:47;;;;;;;7.70;4.43;;;29.40;44.90;;;;;;4339439;32;20092;-70
2021/06/20 07:34:13;;;;;;;5.00;4.37;;;29.50;42.40;;;;;;4351389;32;20085;-69
2021/06/20 07:36:39;;;;;;;6.12;4.20;;;29.30;40.30;;;;;;4351343;32;20093;-70
2021/06/20 07:39:06;;;;;;;4.95;3.87;;;28.90;40.80;;;;;;4351313;32;20073;-69
2021/06/20 07:41:32;;;;;;;5.62;4.05;;;29.10;40.90;;;;;;4338799;32;20182;-70
2021/06/20 07:43:58;;;;;;;14.38;4.43;;;29.30;40.70;;;;;;4363512;32;20070;-70
2021/06/20 07:46:24;;;;;;;4.60;3.30;;;29.40;40.10;;;;;;4377635;32;20112;-70
2021/06/20 07:48:51;;;;;;;7.40;4.47;;;29.40;39.00;;;;;;4351593;32;20089;-69
2021/06/20 07:51:17;;;;;;;4.90;4.28;;;29.20;40.90;;;;;;4363533;32;20550;-71
2021/06/20 07:53:43;;;;;;;5.72;5.18;;;29.40;40.70;;;;;;4338181;32;20074;-69
2021/06/20 07:56:09;;;;;;;5.15;3.97;;;29.20;40.20;;;;;;4350727;32;20520;-69
2021/06/20 07:58:35;;;;;;;5.65;4.10;;;29.20;39.80;;;;;;4363300;32;20150;-69
2021/06/20 08:01:02;;;;;;;5.07;4.28;;;29.70;40.10;;;;;;4363560;32;20586;-70
2021/06/20 08:03:31;;;;;;;7.97;4.60;;;29.20;38.10;;;;;;4351233;32;20175;-72
2021/06/20 08:05:58;;;;;;;5.72;4.10;;;29.40;37.20;;;;;;4339769;32;20082;-69
2021/06/20 08:08:24;;;;;;;7.72;4.03;;;29.40;39.00;;;;;;4311655;32;20099;-70
2021/06/20 08:10:50;;;;;;;5.28;4.30;;;29.60;37.00;;;;;;4335670;32;20530;-70
2021/06/20 08:13:16;;;;;;;4.93;3.95;;;29.40;38.90;;;;;;4300504;32;20106;-69
2021/06/20 08:15:43;;;;;;;6.15;4.55;;;29.60;39.10;;;;;;4323549;32;20202;-70
2021/06/20 08:18:10;;;;;;;5.60;4.18;;;29.30;38.30;;;;;;4312343;32;20072;-69
2021/06/20 08:20:36;;;;;;;4.87;3.97;;;29.40;37.70;;;;;;4323574;32;20080;-70
2021/06/20 08:23:02;;;;;;;5.75;3.97;;;29.90;37.80;;;;;;4323372;32;20561;-69
2021/06/20 08:25:28;;;;;;;6.15;3.62;;;30.10;36.70;;;;;;4324073;32;20094;-71
2021/06/20 08:27:54;;;;;;;7.25;4.28;;;30.30;36.70;;;;;;4348046;32;20554;-70
2021/06/20 08:30:21;;;;;;;7.05;3.85;;;30.30;34.10;;;;;;4335710;32;20143;-69
2021/06/20 08:32:48;;;;;;;7.28;4.32;;;30.00;35.90;;;;;;4336214;32;20506;-69
2021/06/20 08:35:17;;;;;;;4.68;4.00;;;29.90;37.00;;;;;;4330653;32;20085;-69
2021/06/20 08:37:44;;;;;;;6.03;4.50;;;29.90;37.80;;;;;;4326068;32;20159;-70
2021/06/20 08:40:11;;;;;;;4.70;4.20;;;30.10;38.50;;;;;;4323520;32;20104;-71
2021/06/20 08:42:37;;;;;;;4.80;3.35;;;30.50;37.80;;;;;;4323796;32;20065;-70
2021/06/20 08:45:05;;;;;;;5.32;4.50;;;30.20;36.80;;;;;;4347914;32;20063;-70
2021/06/20 08:47:33;;;;;;;9.52;4.35;;;29.90;37.70;;;;;;4323417;32;20101;-69
2021/06/20 08:49:59;;;;;;;5.82;4.18;;;30.40;36.50;;;;;;4336211;32;20169;-70
2021/06/20 08:52:25;;;;;;;5.90;4.30;;;30.30;37.50;;;;;;4324835;32;20066;-70
2021/06/20 08:55:02;;;;;;;5.25;4.75;;;30.60;36.70;;;;;;4311039;32;20150;-69
2021/06/20 08:57:34;;;;;;;6.95;4.47;;;30.40;36.00;;;;;;4336872;32;20066;-68
2021/06/20 09:00:00;;;;;;;5.00;4.50;;;30.20;36.50;;;;;;4335627;32;20082;-69
2021/06/20 09:02:27;;;;;;;5.53;4.70;;;30.70;35.80;;;;;;4323398;32;20493;-70
2021/06/20 09:05:03;;;;;;;5.93;4.72;;;30.90;35.50;;;;;;4331159;32;20086;-69
2021/06/20 09:07:36;;;;;;;6.43;4.43;;;30.20;34.90;;;;;;4377746;32;20113;-70
2021/06/20 09:10:15;;;;;;;5.97;4.40;;;30.10;34.60;;;;;;4353746;32;20081;-70
2021/06/20 09:12:44;;;;;;;6.55;4.32;;;30.30;35.00;;;;;;4353240;32;20083;-70
2021/06/20 09:15:13;;;;;;;5.28;4.00;;;30.90;35.30;;;;;;4352872;32;20074;-70
2021/06/20 09:17:39;;;;;;;5.15;4.37;;;30.90;34.90;;;;;;4352984;32;20169;-70
2021/06/20 09:20:06;;;;;;;5.40;3.97;;;30.10;34.90;;;;;;4340642;32;20162;-69
2021/06/20 09:22:32;;;;;;;5.30;4.55;;;30.10;34.40;;;;;;4365201;32;20062;-69
2021/06/20 09:25:14;;;;;;;5.95;4.50;;;29.90;34.80;;;;;;4364754;32;20073;-70
2021/06/20 09:27:40;;;;;;;5.40;4.20;;;30.10;35.60;;;;;;4367159;32;20066;-70
2021/06/20 09:30:16;;;;;;;5.72;4.20;;;31.10;34.00;;;;;;4340026;32;20086;-69
2021/06/20 09:33:00;;;;;;;6.70;4.80;;;30.70;33.40;;;;;;4341703;32;20081;-70
2021/06/20 09:35:32;;;;;;;5.55;4.45;;;30.30;33.40;;;;;;4344366;32;20170;-70
2021/06/20 09:37:59;;;;;;;5.07;4.00;;;30.20;33.10;;;;;;4323517;32;20590;-70
2021/06/20 09:40:29;;;;;;;4.53;4.12;;;30.20;34.10;;;;;;4347213;32;20155;-70
2021/06/20 09:42:56;;;;;;;5.90;4.40;;;30.40;34.50;;;;;;4299187;32;20078;-70
2021/06/20 09:45:34;;;;;;;4.70;4.22;;;30.40;33.70;;;;;;4347788;32;20155;-70
2021/06/20 09:48:00;;;;;;;4.90;4.28;;;31.10;32.70;;;;;;4347898;32;20070;-71
2021/06/20 09:50:41;;;;;;;5.28;4.20;;;31.20;32.30;;;;;;4347763;32;20497;-70
2021/06/20 09:53:07;;;;;;;5.47;3.67;;;31.00;32.70;;;;;;4335276;32;20150;-70
2021/06/20 09:55:34;;;;;;;5.82;3.80;;;30.70;33.20;;;;;;4347823;32;20062;-70
2021/06/20 09:58:01;;;;;;;4.62;4.15;;;31.00;33.20;;;;;;4311645;32;20457;-70
2021/06/20 10:00:39;;;;;;;6.47;4.30;;;30.90;32.50;;;;;;4323331;32;20074;-69
2021/06/20 10:03:06;;;;;;;6.25;4.15;;;30.80;33.00;;;;;;4323484;32;20093;-70
2021/06/20 10:05:32;;;;;;;4.85;4.32;;;31.00;32.90;;;;;;4351765;32;20062;-71
2021/06/20 10:08:01;;;;;;;5.57;4.50;;;31.30;31.90;;;;;;4327736;32;20074;-70
2021/06/20 10:10:28;;;;;;;5.20;4.05;;;30.70;32.30;;;;;;4352688;32;20074;-70
2021/06/20 10:12:54;;;;;;;6.37;4.53;;;30.50;34.00;;;;;;4352323;32;20066;-70
2021/06/20 10:15:21;;;;;;;6.68;4.25;;;31.30;33.50;;;;;;4377877;32;20083;-70
2021/06/20 10:17:55;;;;;;;8.18;4.55;;;31.30;33.00;;;;;;4367686;32;20070;-70
2021/06/20 10:20:21;;;;;;;5.15;4.60;;;31.20;32.90;;;;;;4355776;32;20145;-69
2021/06/20 10:22:49;;;;;;;5.40;4.37;;;31.30;33.20;;;;;;4342493;32;20070;-70
2021/06/20 10:25:35;;;;;;;10.85;4.72;;;31.50;32.60;;;;;;4354773;32;20058;-70
2021/06/20 10:28:23;;;;;;;;;;;31.40;32.30;;;;;;4368321;32;20062;-69
2021/06/20 10:30:49;;;;;;;8.25;5.53;;;30.80;32.70;;;;;;4381872;32;20390;-70
2021/06/20 10:33:26;;;;;;;7.05;4.57;;;30.80;33.80;;;;;;4379601;32;20142;-69
2021/06/20 10:36:06;;;;;;;6.53;5.10;;;30.70;34.20;;;;;;4344100;32;20078;-70
2021/06/20 10:38:46;;;;;;;6.07;4.47;;;30.80;33.80;;;;;;4352806;32;20077;-69
2021/06/20 10:41:23;;;;;;;4.90;4.40;;;31.30;33.50;;;;;;4353099;32;20522;-70
2021/06/20 10:44:00;;;;;;;7.28;4.28;;;31.60;32.60;;;;;;4352379;32;20062;-70
2021/06/20 10:46:27;;;;;;;5.50;4.50;;;31.60;32.50;;;;;;4352312;32;20063;-69
2021/06/20 10:48:53;;;;;;;4.87;4.12;;;31.40;32.30;;;;;;4339918;32;20085;-70
2021/06/20 10:51:22;;;;;;;4.45;3.85;;;31.20;32.90;;;;;;4339807;32;20078;-72
2021/06/20 10:53:48;;;;;;;7.65;4.57;;;31.10;33.00;;;;;;4339907;32;20117;-70
2021/06/20 10:56:26;;;;;;;7.53;4.37;;;31.40;31.90;;;;;;4352108;32;20156;-70
2021/06/20 10:58:54;;;;;;;7.47;5.78;;;31.30;32.10;;;;;;4352844;32;20073;-70
2021/06/20 11:01:26;;;;;;;9.45;5.68;;;31.50;33.60;;;;;;4351779;32;20501;-69
2021/06/20 11:03:52;;;;;;;5.15;4.65;;;31.00;35.70;;;;;;4327700;32;20078;-70
2021/06/20 11:06:20;;;;;;;11.32;7.65;;;30.80;33.80;;;;;;4351656;32;20574;-69
2021/06/20 11:08:53;;;;;;;5.18;4.53;;;31.10;34.10;;;;;;4351598;32;20178;-69
2021/06/20 11:11:21;;;;;;;5.62;4.60;;;32.00;33.00;;;;;;4364061;32;20438;-70
2021/06/20 11:14:00;;;;;;;5.75;4.65;;;32.00;31.80;;;;;;4351918;32;20070;-70
2021/06/20 11:16:40;;;;;;;7.68;6.50;;;31.70;31.70;;;;;;4363937;32;20096;-69
2021/06/20 11:19:28;;;;;;;5.18;4.68;;;31.60;31.20;;;;;;4353466;32;20444;-70
2021/06/20 11:22:05;;;;;;;4.97;4.40;;;30.90;31.90;;;;;;4351699;32;20073;-69
2021/06/20 11:24:47;;;;;;;6.75;5.00;;;31.80;31.60;;;;;;4340288;32;20073;-69
2021/06/20 11:27:19;;;;;;;6.00;4.65;;;31.60;31.20;;;;;;4340422;32;20066;-69
2021/06/20 11:29:50;;;;;;;5.03;4.05;;;31.30;30.70;;;;;;4351567;32;20077;-70
2021/06/20 11:32:19;;;;;;;5.50;3.87;;;31.60;31.10;;;;;;4351419;32;20138;-70
2021/06/20 11:34:49;;;;;;;4.72;4.22;;;32.00;30.00;;;;;;4323637;32;20083;-70
2021/06/20 11:37:28;;;;;;;9.20;4.45;;;31.70;29.90;;;;;;4324596;32;20517;-69
2021/06/20 11:39:57;;;;;;;5.32;4.40;;;31.20;30.00;;;;;;4325834;32;20503;-70
2021/06/20 11:42:38;;;;;;;11.05;4.62;;;31.70;29.80;;;;;;4315634;32;20478;-70
2021/06/20 11:45:13;;;;;;;6.00;4.28;;;31.90;30.00;;;;;;4312949;32;20103;-69
2021/06/20 11:47:41;;;;;;;5.20;4.70;;;31.50;30.40;;;;;;4336716;32;20504;-70
2021/06/20 11:50:18;;;;;;;4.37;3.80;;;31.20;30.70;;;;;;4324128;32;20067;-70
2021/06/20 11:52:56;;;;;;;5.53;4.72;;;31.80;30.00;;;;;;4336247;32;20574;-71
2021/06/20 11:55:25;;;;;;;5.60;4.40;;;31.40;30.70;;;;;;4337046;32;20070;-70
2021/06/20 11:57:52;;;;;;;7.90;4.60;;;31.50;31.10;;;;;;4324344;32;20074;-70
2021/06/20 12:00:20;;;;;;;8.00;4.78;;;31.50;30.80;;;;;;4300069;32;20078;-69
2021/06/20 12:03:15;;;;;;;7.37;4.55;;;31.30;32.20;;;;;;4349209;32;20082;-69
2021/06/20 12:05:52;;;;;;;5.60;4.30;;;31.90;31.10;;;;;;4367003;32;20070;-69
2021/06/20 12:08:18;;;;;;;6.00;4.85;;;32.10;30.30;;;;;;4368034;32;20165;-69
2021/06/20 12:10:46;;;;;;;5.65;4.62;;;32.20;30.50;;;;;;4343197;32;20538;-70
2021/06/20 12:13:13;;;;;;;4.47;3.65;;;32.00;29.90;;;;;;4355252;32;20167;-69
2021/06/20 12:15:41;;;;;;;5.25;4.75;;;32.30;30.10;;;;;;4367411;32;20081;-70
2021/06/20 12:18:09;;;;;;;5.40;4.40;;;31.70;31.00;;;;;;4366224;32;20163;-70
2021/06/20 12:20:38;;;;;;;5.60;4.65;;;31.40;31.00;;;;;;4365642;32;20078;-69
2021/06/20 12:23:06;;;;;;;5.53;4.53;;;31.20;31.90;;;;;;4365321;32;20082;-70
2021/06/20 12:25:47;;;;;;;6.55;4.78;;;32.00;30.50;;;;;;4354006;32;20078;-69
2021/06/20 12:28:15;;;;;;;5.05;4.55;;;31.50;31.30;;;;;;4353734;32;20062;-69
2021/06/20 12:30:45;;;;;;;5.50;4.82;;;31.40;31.30;;;;;;4328867;32;20146;-70
2021/06/20 12:33:15;;;;;;;6.70;4.70;;;31.10;31.90;;;;;;4365739;32;20081;-69
2021/06/20 12:35:43;;;;;;;6.95;4.65;;;31.30;32.20;;;;;;4354474;32;20066;-69
2021/06/20 12:38:21;;;;;;;4.78;4.28;;;31.30;31.90;;;;;;4335830;32;20170;-69
2021/06/20 12:40:49;;;;;;;8.68;5.00;;;31.30;31.00;;;;;;4349063;32;20082;-71
2021/06/20 12:43:20;;;;;;;7.32;5.05;;;31.50;31.20;;;;;;4335678;32;20089;-68
2021/06/20 12:45:57;;;;;;;13.88;10.55;;;31.50;31.10;;;;;;4348282;32;20171;-70
2021/06/20 12:48:24;;;;;;;9.02;4.93;;;31.30;31.10;;;;;;4337196;32;20158;-69
2021/06/20 12:50:55;;;;;;;7.20;4.50;;;31.20;30.80;;;;;;4360631;32;20089;-70
2021/06/20 12:53:36;;;;;;;6.37;4.45;;;31.30;31.50;;;;;;4336250;32;20160;-69